Time;durP1;ratioP1;P1;durP2;ratioP2;P2;SDS_P1;SDS_P2;PMS_P1;PMS_P2;Temp;Humidity;BMP_temperature;BMP_pressure;BME280_temperature;BME280_humidity;BME280_pressure;Samples;Min_cycle;Max_cycle;Signal;HPM_P1;HPM_P2
2021/01/03 00:02:07;;;;;;;32.53;18.45;;;230.40;1638.40;;;;;;5052453;28;20025;-78
2021/01/03 00:04:32;;;;;;;;;;;205.70;1638.40;;;;;;5054833;28;20052;-77
2021/01/03 00:06:58;;;;;;;31.65;16.48;;;205.70;1638.40;;;;;;5052960;28;19944;-81
2021/01/03 00:09:24;;;;;;;35.05;19.75;;;205.70;1638.40;;;;;;5052394;28;20094;-79
2021/01/03 00:11:51;;;;;;;37.38;21.05;;;205.70;1664.00;;;;;;5052810;28;20021;-82
2021/01/03 00:14:17;;;;;;;52.85;31.63;;;205.70;1664.00;;;;;;5052728;28;20234;-79
2021/01/03 00:16:47;;;;;;;65.32;34.08;;;230.60;1664.00;;;;;;5050876;28;20027;-79
2021/01/03 00:19:14;;;;;;;47.38;28.77;;;205.70;1664.00;;;;;;5053011;28;20110;-77
2021/01/03 00:21:40;;;;;;;43.72;26.00;;;230.40;1664.00;;;;;;5051144;28;20029;-78
2021/01/03 00:24:06;;;;;;;49.42;29.13;;;230.40;1664.00;;;;;;5052619;28;20036;-79
2021/01/03 00:26:32;;;;;;;58.90;31.70;;;230.40;1664.00;;;;;;5052644;28;20428;-78
2021/01/03 00:28:58;;;;;;;61.58;36.72;;;230.50;1664.00;;;;;;5053273;28;20021;-77
2021/01/03 00:31:25;;;;;;;54.05;32.28;;;230.50;1664.00;;;;;;5051942;28;20024;-79
2021/01/03 00:33:51;;;;;;;54.97;32.17;;;230.50;1664.00;;;;;;5054098;28;20096;-82
2021/01/03 00:36:17;;;;;;;47.13;28.95;;;230.50;1664.00;;;;;;5052181;28;20028;-82
2021/01/03 00:38:43;;;;;;;56.65;31.08;;;230.50;1664.00;;;;;;5052305;28;20059;-81
2021/01/03 00:41:09;;;;;;;57.38;33.80;;;230.50;1638.40;;;;;;5053359;28;20029;-80
2021/01/03 00:43:35;;;;;;;59.58;33.92;;;230.60;1664.00;;;;;;5053209;28;20444;-81
2021/01/03 00:46:01;;;;;;;56.60;32.30;;;230.60;1664.00;;;;;;5051453;28;20117;-81
2021/01/03 00:48:27;;;;;;;54.10;30.40;;;230.60;1664.00;;;;;;5035758;28;20358;-78
2021/01/03 00:50:52;;;;;;;52.88;29.65;;;230.60;1664.00;;;;;;5052296;28;20029;-78
2021/01/03 00:53:18;;;;;;;47.15;27.60;;;230.70;1638.40;;;;;;5052117;28;20025;-80
2021/01/03 00:55:44;;;;;;;50.55;29.00;;;230.70;1638.40;;;;;;5052490;28;20025;-78
2021/01/03 00:58:10;;;;;;;51.08;29.55;;;230.70;1638.40;;;;;;5052154;28;20074;-81
2021/01/03 01:00:36;;;;;;;60.90;35.53;;;230.80;1664.00;;;;;;5053164;28;20037;-80
2021/01/03 01:03:03;;;;;;;66.18;39.20;;;230.70;1664.00;;;;;;5052059;28;20491;-81
2021/01/03 01:05:29;;;;;;;68.75;37.20;;;230.60;1664.00;;;;;;5053242;28;20029;-80
2021/01/03 01:07:55;;;;;;;52.78;31.25;;;230.60;1689.60;;;;;;5052191;28;20025;-82
2021/01/03 01:10:24;;;;;;;47.60;28.75;;;230.60;1689.60;;;;;;5035573;28;20036;-82
2021/01/03 01:12:51;;;;;;;36.63;22.35;;;230.60;1689.60;;;;;;5052422;28;20021;-80
2021/01/03 01:15:19;;;;;;;40.00;24.23;;;230.60;1689.60;;;;;;5035580;28;20029;-80
2021/01/03 01:17:50;;;;;;;43.80;24.70;;;230.60;1689.60;;;;;;5050100;28;20059;-78
2021/01/03 01:20:18;;;;;;;42.85;23.75;;;230.60;1715.20;;;;;;5053370;28;20525;-79
2021/01/03 01:22:44;;;;;;;43.20;23.80;;;230.50;1715.20;;;;;;5034375;28;20516;-80
2021/01/03 01:25:11;;;;;;;45.25;25.27;;;230.60;1715.20;;;;;;5051735;28;20112;-78
2021/01/03 01:27:37;;;;;;;51.42;26.92;;;230.60;1715.20;;;;;;5051838;28;20393;-80
2021/01/03 01:30:06;;;;;;;56.95;30.42;;;230.60;1715.20;;;;;;5055733;28;20035;-77
2021/01/03 01:32:32;;;;;;;56.58;30.35;;;230.60;1740.80;;;;;;5057016;28;20040;-81
2021/01/03 01:34:58;;;;;;;58.47;31.33;;;230.60;1766.40;;;;;;5055757;28;20457;-82
2021/01/03 01:37:24;;;;;;;48.65;28.73;;;230.50;1766.40;;;;;;5055236;28;20040;-81
2021/01/03 01:39:50;;;;;;;52.65;28.38;;;230.60;1792.00;;;;;;5055315;28;20366;-80
2021/01/03 01:42:17;;;;;;;54.33;27.15;;;230.50;1792.00;;;;;;5056989;28;20029;-82
2021/01/03 01:44:43;;;;;;;35.53;20.60;;;230.50;1792.00;;;;;;5055650;28;20082;-83
2021/01/03 01:47:28;;;;;;;34.22;17.35;;;230.60;1817.60;;;;;;5054027;28;20478;-79
2021/01/03 01:49:57;;;;;;;34.20;20.67;;;230.60;1817.60;;;;;;5055159;28;20500;-81
2021/01/03 01:52:28;;;;;;;41.30;22.70;;;230.60;1817.60;;;;;;5054311;28;20024;-82
2021/01/03 01:54:58;;;;;;;50.20;28.33;;;230.60;1868.80;;;;;;5055867;28;20029;-81
2021/01/03 01:57:39;;;;;;;59.60;32.88;;;230.60;1868.80;;;;;;5054338;28;20032;-78
2021/01/03 02:00:14;;;;;;;46.88;25.45;;;230.60;1868.80;;;;;;5054517;28;20036;-81
2021/01/03 02:02:50;;;;;;;58.47;31.88;;;230.60;1868.80;;;;;;5054194;28;20025;-79
2021/01/03 02:05:37;;;;;;;71.63;37.55;;;230.60;1894.40;;;;;;5056934;28;20472;-78
2021/01/03 02:08:12;;;;;;;83.45;42.33;;;230.60;1920.00;;;;;;5056331;28;20036;-79
2021/01/03 02:10:41;;;;;;;81.53;40.58;;;230.60;1920.00;;;;;;5055161;28;20070;-78
2021/01/03 02:13:16;;;;;;;74.60;40.97;;;230.60;1945.60;;;;;;5055166;28;20037;-79
2021/01/03 02:15:42;;;;;;;71.75;37.72;;;230.50;1945.60;;;;;;5052958;28;20037;-78
2021/01/03 02:18:11;;;;;;;90.65;45.72;;;230.50;1945.60;;;;;;5056244;28;20025;-82
2021/01/03 02:20:57;;;;;;;85.28;43.63;;;230.50;1945.60;;;;;;5053959;28;20430;-81
2021/01/03 02:23:48;;;;;;;90.72;43.22;;;230.50;1971.20;;;;;;5025043;28;20037;-81
2021/01/03 02:26:15;;;;;;;106.45;48.53;;;230.50;1996.80;;;;;;5038396;28;20031;-82
2021/01/03 02:28:44;;;;;;;105.35;48.10;;;230.50;1996.80;;;;;;5053547;28;20028;-82
2021/01/03 02:31:17;;;;;;;98.43;43.38;;;205.70;1996.80;;;;;;5038060;28;20388;-81
2021/01/03 02:33:45;;;;;;;;;;;230.40;2048.00;;;;;;5038075;28;20036;-80
2021/01/03 02:36:51;;;;;;;76.43;36.30;;;230.40;2022.40;;;;;;5055932;28;19905;-82
2021/01/03 02:39:32;;;;;;;71.97;34.92;;;230.40;2048.00;;;;;;5036979;28;20045;-80
2021/01/03 02:42:10;;;;;;;61.63;30.52;;;230.40;2048.00;;;;;;5037877;28;20044;-78
2021/01/03 02:44:36;;;;;;;47.08;26.98;;;230.50;2048.00;;;;;;5054537;28;20057;-81
2021/01/03 02:47:02;;;;;;;43.03;23.95;;;230.50;2048.00;;;;;;5038324;28;20052;-80
2021/01/03 02:49:28;;;;;;;41.50;23.38;;;230.50;2048.00;;;;;;5037492;28;20465;-82
2021/01/03 02:51:54;;;;;;;31.23;19.98;;;230.40;2073.60;;;;;;5037814;28;20441;-81
2021/01/03 02:54:20;;;;;;;32.00;19.17;;;230.40;2073.60;;;;;;5037837;28;20021;-82
2021/01/03 02:56:46;;;;;;;32.97;17.98;;;230.40;2048.00;;;;;;5037549;28;20083;-81
2021/01/03 02:59:11;;;;;;;34.60;17.95;;;230.40;2048.00;;;;;;5037599;28;20025;-81
2021/01/03 03:01:37;;;;;;;28.05;17.75;;;230.40;2073.60;;;;;;5037538;28;20559;-81
2021/01/03 03:04:03;;;;;;;31.20;16.10;;;230.40;2048.00;;;;;;5053946;28;20059;-81
2021/01/03 03:06:29;;;;;;;29.27;17.40;;;205.70;2073.60;;;;;;5037453;28;20032;-81
2021/01/03 03:08:55;;;;;;;29.83;17.05;;;205.70;2048.00;;;;;;5054070;28;20112;-82
2021/01/03 03:11:20;;;;;;;26.23;14.85;;;205.60;2048.00;;;;;;5053887;28;20390;-81
2021/01/03 03:13:46;;;;;;;22.55;15.90;;;205.70;2022.40;;;;;;5037419;28;20029;-83
2021/01/03 03:16:16;;;;;;;26.20;14.30;;;205.70;2048.00;;;;;;5037694;28;20059;-81
2021/01/03 03:18:42;;;;;;;24.33;15.23;;;205.70;2048.00;;;;;;5037007;28;20020;-81
2021/01/03 03:21:08;;;;;;;20.80;14.10;;;205.60;2073.60;;;;;;5053923;28;20439;-79
2021/01/03 03:23:33;;;;;;;23.92;14.35;;;205.60;2073.60;;;;;;5054856;28;20037;-81
2021/01/03 03:25:59;;;;;;;20.55;13.10;;;205.50;2124.80;;;;;;5038085;28;20070;-81
2021/01/03 03:28:25;;;;;;;20.63;11.90;;;205.40;2124.80;;;;;;5055199;28;20025;-83
2021/01/03 03:30:51;;;;;;;18.65;12.65;;;205.50;2073.60;;;;;;5054522;28;20385;-79
2021/01/03 03:33:16;;;;;;;22.60;13.68;;;205.30;2099.20;;;;;;5037051;28;20119;-81
2021/01/03 03:35:44;;;;;;;28.13;15.73;;;205.40;2073.60;;;;;;5037086;28;20036;-79
2021/01/03 03:38:10;;;;;;;31.00;18.58;;;205.40;2073.60;;;;;;5036390;28;20044;-82
2021/01/03 03:40:38;;;;;;;25.63;16.85;;;205.30;2099.20;;;;;;5036809;28;20039;-78
2021/01/03 03:43:06;;;;;;;31.63;21.83;;;180.10;2099.20;;;;;;5036916;28;20029;-78
2021/01/03 03:45:32;;;;;;;29.15;20.00;;;205.30;2099.20;;;;;;5036611;28;20025;-80
2021/01/03 03:47:57;;;;;;;30.75;19.55;;;205.20;2124.80;;;;;;5037253;28;20035;-82
2021/01/03 03:50:24;;;;;;;30.38;18.92;;;205.20;2099.20;;;;;;5036544;28;20036;-79
2021/01/03 03:52:50;;;;;;;30.05;19.52;;;205.20;2124.80;;;;;;5036007;28;20031;-79
2021/01/03 03:55:17;;;;;;;32.50;18.90;;;205.10;2124.80;;;;;;5036572;28;20071;-78
2021/01/03 03:57:43;;;;;;;29.33;18.60;;;180.00;2099.20;;;;;;5037216;28;20052;-81
2021/01/03 04:00:19;;;;;;;30.08;20.52;;;204.90;2099.20;;;;;;5036315;28;20029;-81
2021/01/03 04:02:45;;;;;;;34.70;21.08;;;205.00;2124.80;;;;;;5036440;28;20029;-82
2021/01/03 04:05:17;;;;;;;35.17;21.55;;;205.00;2099.20;;;;;;5036379;28;20032;-81
2021/01/03 04:07:43;;;;;;;37.88;22.52;;;205.10;2099.20;;;;;;5036327;28;20025;-80
2021/01/03 04:10:09;;;;;;;39.10;23.98;;;205.10;2124.80;;;;;;5036280;28;20386;-82
2021/01/03 04:12:36;;;;;;;37.50;21.58;;;205.70;2124.80;;;;;;5035851;28;20021;-80
2021/01/03 04:15:05;;;;;;;36.08;21.60;;;180.10;2099.20;;;;;;5036193;28;20469;-80
2021/01/03 04:17:30;;;;;;;39.35;22.40;;;205.20;2124.80;;;;;;5054269;28;20222;-79
2021/01/03 04:19:56;;;;;;;40.80;22.40;;;205.20;2073.60;;;;;;5035798;28;20563;-80
2021/01/03 04:22:22;;;;;;;37.28;21.88;;;205.20;2073.60;;;;;;5036338;28;20035;-79
2021/01/03 04:24:48;;;;;;;40.88;21.60;;;205.20;2099.20;;;;;;5036045;28;20079;-81
2021/01/03 04:27:13;;;;;;;38.55;23.13;;;205.20;2073.60;;;;;;5052425;28;20461;-80
2021/01/03 04:29:40;;;;;;;43.50;25.55;;;205.20;2099.20;;;;;;5035984;28;20033;-77
2021/01/03 04:32:08;;;;;;;42.92;24.30;;;205.10;2099.20;;;;;;5036262;28;20472;-82
2021/01/03 04:34:37;;;;;;;45.33;29.27;;;205.20;2073.60;;;;;;5035685;28;20079;-79
2021/01/03 04:37:04;;;;;;;46.88;28.38;;;205.20;2099.20;;;;;;5035620;28;20029;-80
2021/01/03 04:39:30;;;;;;;45.13;26.60;;;205.30;2073.60;;;;;;5035688;28;20045;-81
2021/01/03 04:42:00;;;;;;;35.83;23.73;;;205.20;2073.60;;;;;;5035845;28;20083;-81
2021/01/03 04:45:01;;;;;;;36.35;23.40;;;205.10;2150.40;;;;;;5036523;28;20029;-77
2021/01/03 04:47:37;;;;;;;36.65;23.38;;;205.00;2150.40;;;;;;5031520;28;20061;-81
2021/01/03 04:50:21;;;;;;;35.45;21.70;;;204.90;2150.40;;;;;;5035899;28;20059;-79
2021/01/03 04:53:03;;;;;;;35.55;22.13;;;205.10;2124.80;;;;;;5036426;28;20029;-80
2021/01/03 04:55:33;;;;;;;38.85;23.98;;;205.00;2176.00;;;;;;5035660;28;20021;-81
2021/01/03 04:58:08;;;;;;;37.65;23.15;;;204.90;2150.40;;;;;;5036348;28;20029;-79
2021/01/03 05:00:45;;;;;;;43.70;25.42;;;205.00;2176.00;;;;;;5035855;28;20082;-79
2021/01/03 05:03:20;;;;;;;37.17;21.80;;;205.00;2176.00;;;;;;5038130;28;20123;-79
2021/01/03 05:05:48;;;;;;;37.05;26.48;;;205.00;2150.40;;;;;;5039799;28;20024;-80
2021/01/03 05:08:34;;;;;;;38.47;26.77;;;204.90;2201.60;;;;;;5040329;28;20067;-80
2021/01/03 05:11:16;;;;;;;38.55;24.92;;;204.90;2176.00;;;;;;5039749;28;20116;-80
2021/01/03 05:14:00;;;;;;;44.13;27.55;;;205.00;2150.40;;;;;;5039579;28;20048;-79
2021/01/03 05:16:26;;;;;;;52.95;30.75;;;204.80;2201.60;;;;;;5056903;28;20048;-81
2021/01/03 05:18:52;;;;;;;56.42;33.13;;;205.00;2150.40;;;;;;5039598;28;20068;-81
2021/01/03 05:21:17;;;;;;;54.28;31.90;;;204.90;2176.00;;;;;;5039468;28;20473;-77
2021/01/03 05:23:59;;;;;;;58.15;38.00;;;205.00;2150.40;;;;;;5039336;28;20124;-80
2021/01/03 05:26:34;;;;;;;62.30;38.20;;;205.20;2124.80;;;;;;5057183;28;20126;-77
2021/01/03 05:29:01;;;;;;;73.20;49.00;;;205.20;2124.80;;;;;;5039030;28;20029;-77
2021/01/03 05:31:28;;;;;;;102.75;56.60;;;204.90;2124.80;;;;;;5038410;28;20036;-80
2021/01/03 05:34:05;;;;;;;94.53;52.08;;;205.10;2150.40;;;;;;5038751;28;20025;-81
2021/01/03 05:36:57;;;;;;;90.95;50.97;;;205.00;2150.40;;;;;;5056857;28;20024;-82
2021/01/03 05:39:23;;;;;;;82.18;45.17;;;205.20;2150.40;;;;;;5034754;28;20052;-81
2021/01/03 05:42:13;;;;;;;83.55;48.40;;;205.20;2150.40;;;;;;5057090;28;20021;-79
2021/01/03 05:44:43;;;;;;;104.45;54.05;;;205.20;2150.40;;;;;;5038731;28;20029;-78
2021/01/03 05:47:29;;;;;;;101.13;56.15;;;205.30;2124.80;;;;;;5039127;28;20109;-77
2021/01/03 05:50:10;;;;;;;87.28;48.20;;;205.20;2150.40;;;;;;5038961;28;20044;-81
2021/01/03 05:52:44;;;;;;;71.28;41.30;;;205.20;2150.40;;;;;;5038772;28;20416;-80
2021/01/03 05:55:10;;;;;;;52.35;33.47;;;205.00;2176.00;;;;;;5056705;28;20024;-78
2021/01/03 05:57:36;;;;;;;49.05;29.67;;;204.90;2201.60;;;;;;5056654;28;20025;-79
2021/01/03 06:00:23;;;;;;;49.13;30.52;;;205.00;2176.00;;;;;;5055395;28;20120;-79
2021/01/03 06:02:49;;;;;;;57.72;35.80;;;205.00;2176.00;;;;;;5056236;28;20033;-81
2021/01/03 06:05:18;;;;;;;53.28;36.05;;;204.90;2227.20;;;;;;5055008;28;20021;-82
2021/01/03 06:08:16;;;;;;;55.38;35.70;;;180.10;2252.80;;;;;;5056485;28;20025;-79
2021/01/03 06:10:42;;;;;;;56.60;33.83;;;204.90;2227.20;;;;;;5022152;28;20040;-76
2021/01/03 06:13:10;;;;;;;55.63;35.55;;;204.80;2201.60;;;;;;5038218;28;20025;-77
2021/01/03 06:15:51;;;;;;;63.55;39.13;;;205.00;2201.60;;;;;;5037624;28;20037;-79
2021/01/03 06:18:45;;;;;;;68.50;41.08;;;204.90;2227.20;;;;;;5038268;28;20021;-78
2021/01/03 06:21:36;;;;;;;86.78;54.20;;;204.90;2201.60;;;;;;5051545;28;20041;-79
2021/01/03 06:24:29;;;;;;;69.20;41.25;;;204.80;2227.20;;;;;;5055059;28;20127;-79
2021/01/03 06:26:57;;;;;;;63.58;41.95;;;204.90;2201.60;;;;;;5050198;28;20033;-82
2021/01/03 06:29:34;;;;;;;59.78;39.92;;;204.90;2201.60;;;;;;5038694;28;20369;-77
2021/01/03 06:32:26;;;;;;;77.57;48.08;;;204.90;2201.60;;;;;;5056135;28;20021;-80
2021/01/03 06:35:07;;;;;;;101.80;60.88;;;205.00;2176.00;;;;;;5038279;28;20064;-77
2021/01/03 06:37:50;;;;;;;130.52;76.10;;;204.90;2201.60;;;;;;5037840;28;20029;-78
2021/01/03 06:40:34;;;;;;;121.57;67.97;;;204.90;2201.60;;;;;;5038178;28;20037;-79
2021/01/03 06:43:09;;;;;;;128.13;71.40;;;204.90;2176.00;;;;;;5038229;28;20029;-78
2021/01/03 06:45:47;;;;;;;115.65;63.10;;;204.90;2176.00;;;;;;5055827;28;20036;-78
2021/01/03 06:48:21;;;;;;;103.22;59.10;;;205.00;2176.00;;;;;;5037592;28;20021;-79
2021/01/03 06:51:18;;;;;;;96.07;53.75;;;204.90;2176.00;;;;;;5037950;28;20029;-82
2021/01/03 06:54:14;;;;;;;134.75;73.00;;;205.00;2176.00;;;;;;5037406;28;20119;-77
2021/01/03 06:57:02;;;;;;;232.07;123.55;;;205.00;2150.40;;;;;;5038603;28;20388;-81
2021/01/03 06:59:48;;;;;;;240.10;127.82;;;205.10;2150.40;;;;;;5037473;28;20124;-79
2021/01/03 07:02:18;;;;;;;293.70;153.02;;;205.00;2176.00;;;;;;5037381;28;20488;-82
2021/01/03 07:04:44;;;;;;;155.20;94.50;;;205.00;2150.40;;;;;;5037682;28;20133;-81
2021/01/03 07:07:22;;;;;;;167.63;103.40;;;205.00;2176.00;;;;;;5054145;28;20029;-82
2021/01/03 07:10:10;;;;;;;153.73;100.55;;;205.00;2176.00;;;;;;5055411;28;20029;-81
2021/01/03 07:12:53;;;;;;;136.85;87.90;;;205.00;2176.00;;;;;;5054751;28;20091;-81
2021/01/03 07:15:22;;;;;;;119.90;79.07;;;205.00;2176.00;;;;;;5053883;28;20032;-80
2021/01/03 07:17:54;;;;;;;113.95;80.22;;;204.90;2176.00;;;;;;5055436;28;20025;-78
2021/01/03 07:20:31;;;;;;;103.20;75.73;;;205.00;2176.00;;;;;;5037730;28;20028;-79
2021/01/03 07:23:37;;;;;;;69.88;46.45;;;205.00;2201.60;;;;;;5037148;28;20116;-77
2021/01/03 07:26:04;;;;;;;63.08;41.25;;;205.20;2150.40;;;;;;5036163;28;20033;-81
2021/01/03 07:28:32;;;;;;;64.88;43.53;;;205.30;2150.40;;;;;;5037458;28;20384;-78
2021/01/03 07:31:05;;;;;;;100.35;79.72;;;205.50;2124.80;;;;;;5037041;28;20090;-82
2021/01/03 07:33:40;;;;;;;95.43;73.18;;;205.50;2124.80;;;;;;5055473;28;20074;-80
2021/01/03 07:36:18;;;;;;;103.60;68.07;;;205.60;2124.80;;;;;;5053485;28;20375;-82
2021/01/03 07:39:03;;;;;;;83.85;56.83;;;205.60;2124.80;;;;;;5036601;28;20048;-82
2021/01/03 07:41:29;;;;;;;108.00;76.20;;;205.70;2099.20;;;;;;5036932;28;20123;-80
2021/01/03 07:44:02;;;;;;;97.50;70.30;;;230.40;2099.20;;;;;;5053588;28;20062;-78
2021/01/03 07:46:51;;;;;;;95.03;69.38;;;230.40;2124.80;;;;;;5036966;28;20025;-81
2021/01/03 07:49:40;;;;;;;97.30;63.05;;;230.40;2099.20;;;;;;5036696;28;20113;-79
2021/01/03 07:52:18;;;;;;;92.35;64.97;;;230.40;2099.20;;;;;;5036768;28;20029;-79
2021/01/03 07:54:49;;;;;;;65.60;47.42;;;230.50;2099.20;;;;;;5036743;28;20032;-79
2021/01/03 07:57:16;;;;;;;48.10;34.55;;;230.60;2099.20;;;;;;5036638;28;20083;-81
2021/01/03 07:59:41;;;;;;;38.47;26.58;;;230.70;2073.60;;;;;;5036435;28;20075;-80
2021/01/03 08:02:08;;;;;;;32.33;22.75;;;230.70;2073.60;;;;;;5053152;28;20059;-78
2021/01/03 08:04:34;;;;;;;31.88;19.30;;;230.80;2073.60;;;;;;5052784;28;20420;-80
2021/01/03 08:07:27;;;;;;;29.35;20.27;;;230.80;2048.00;;;;;;5053009;28;20079;-79
2021/01/03 08:09:53;;;;;;;25.08;17.38;;;205.40;2048.00;;;;;;5049349;28;20064;-81
2021/01/03 08:12:32;;;;;;;38.88;24.20;;;230.70;2048.00;;;;;;5035785;28;20059;-77
2021/01/03 08:15:07;;;;;;;57.47;52.35;;;231.00;2048.00;;;;;;5054446;28;20029;-79
2021/01/03 08:17:43;;;;;;;27.25;24.25;;;231.00;2048.00;;;;;;5036339;28;20025;-80
2021/01/03 08:20:16;;;;;;;27.30;19.73;;;231.10;2048.00;;;;;;5036244;28;20025;-80
2021/01/03 08:22:42;;;;;;;27.63;19.42;;;231.10;2048.00;;;;;;5036251;28;20036;-80
2021/01/03 08:25:16;;;;;;;30.58;21.77;;;231.10;2022.40;;;;;;5052762;28;20024;-81
2021/01/03 08:27:50;;;;;;;40.08;28.65;;;231.20;2022.40;;;;;;5051421;28;20020;-80
2021/01/03 08:30:21;;;;;;;40.88;30.42;;;231.20;2048.00;;;;;;5051518;28;20371;-80
2021/01/03 08:32:47;;;;;;;32.53;23.55;;;231.20;2048.00;;;;;;5052305;28;20067;-80
2021/01/03 08:35:29;;;;;;;32.03;23.27;;;231.20;2073.60;;;;;;5052225;28;20060;-77
2021/01/03 08:37:55;;;;;;;28.33;18.83;;;231.30;2048.00;;;;;;5053645;28;20045;-80
2021/01/03 08:40:26;;;;;;;18.80;13.00;;;256.00;2048.00;;;;;;5052395;28;20029;-78
2021/01/03 08:42:58;;;;;;;25.10;16.50;;;256.00;2048.00;;;;;;5052920;28;20025;-80
2021/01/03 08:45:37;;;;;;;20.52;14.75;;;256.10;2048.00;;;;;;5052393;28;20032;-81
2021/01/03 08:48:05;;;;;;;31.35;17.85;;;256.20;2048.00;;;;;;5052613;28;20037;-80
2021/01/03 08:50:35;;;;;;;22.02;16.27;;;256.20;2022.40;;;;;;5052450;28;20028;-79
2021/01/03 08:53:08;;;;;;;22.20;16.08;;;256.30;2022.40;;;;;;5052142;28;20366;-81
2021/01/03 08:55:35;;;;;;;;;;;256.40;2022.40;;;;;;5052924;28;20029;-81
2021/01/03 08:58:04;;;;;;;16.33;10.50;;;256.50;1996.80;;;;;;5053663;28;19905;-80
2021/01/03 09:00:33;;;;;;;15.02;9.35;;;256.50;1971.20;;;;;;5051606;28;20036;-76
2021/01/03 09:03:02;;;;;;;13.90;9.40;;;256.60;1971.20;;;;;;5053530;28;20025;-76
2021/01/03 09:05:35;;;;;;;14.23;10.68;;;256.60;1971.20;;;;;;5052234;28;20051;-80
2021/01/03 09:08:01;;;;;;;;;;;256.70;1996.80;;;;;;5053695;28;20033;-76
2021/01/03 09:10:39;;;;;;;18.17;12.55;;;256.80;1971.20;;;;;;5052589;28;19908;-78
2021/01/03 09:13:13;;;;;;;15.40;9.80;;;256.80;1971.20;;;;;;5053564;28;20407;-79
2021/01/03 09:15:43;;;;;;;40.42;24.90;;;256.80;1996.80;;;;;;5049821;28;20140;-80
2021/01/03 09:18:31;;;;;;;34.00;22.23;;;256.90;1971.20;;;;;;5053462;28;20025;-80
2021/01/03 09:21:07;;;;;;;16.02;11.57;;;281.70;1971.20;;;;;;5052393;28;20032;-79
2021/01/03 09:23:38;;;;;;;20.65;15.80;;;281.80;1945.60;;;;;;5046465;28;20071;-79
2021/01/03 09:26:04;;;;;;;25.83;19.10;;;281.90;1945.60;;;;;;5049155;28;20423;-78
2021/01/03 09:28:38;;;;;;;19.70;15.20;;;282.00;1945.60;;;;;;5051091;28;20400;-79
2021/01/03 09:31:25;;;;;;;23.35;17.15;;;282.00;1945.60;;;;;;5050980;28;20067;-79
2021/01/03 09:34:08;;;;;;;19.95;14.10;;;282.00;1945.60;;;;;;5052074;28;20404;-79
2021/01/03 09:37:01;;;;;;;45.55;28.30;;;282.10;1945.60;;;;;;5051882;28;20357;-80
2021/01/03 09:39:56;;;;;;;;;;;282.30;1920.00;;;;;;5052028;28;20056;-82
2021/01/03 09:42:31;;;;;;;37.38;23.08;;;282.30;1945.60;;;;;;5015757;28;20533;-79
2021/01/03 09:45:26;;;;;;;40.75;24.48;;;282.50;1920.00;;;;;;5052760;28;20033;-79
2021/01/03 09:47:52;;;;;;;54.25;31.02;;;282.50;1920.00;;;;;;5026989;28;20040;-82
2021/01/03 09:50:41;;;;;;;36.95;20.90;;;307.20;1945.60;;;;;;5054070;28;20029;-82
2021/01/03 09:53:19;;;;;;;58.50;32.30;;;307.40;1894.40;;;;;;5055719;28;20051;-80
2021/01/03 09:56:14;;;;;;;40.78;23.77;;;307.40;1894.40;;;;;;5047862;28;20041;-77
2021/01/03 09:58:49;;;;;;;44.08;27.45;;;307.40;1894.40;;;;;;5034737;28;20041;-79
2021/01/03 10:01:31;;;;;;;36.00;23.05;;;307.30;1920.00;;;;;;5037816;28;20082;-79
2021/01/03 10:04:13;;;;;;;46.27;30.37;;;307.30;1920.00;;;;;;5038760;28;20029;-78
2021/01/03 10:06:42;;;;;;;37.43;27.33;;;307.40;1920.00;;;;;;5038806;28;20260;-77
2021/01/03 10:09:29;;;;;;;30.77;21.30;;;307.40;1920.00;;;;;;5038692;28;20349;-77
2021/01/03 10:11:55;;;;;;;25.45;18.30;;;307.30;1920.00;;;;;;5038098;28;20029;-81
2021/01/03 10:14:35;;;;;;;28.63;20.35;;;307.40;1894.40;;;;;;5056283;28;20029;-82
2021/01/03 10:17:21;;;;;;;17.20;11.73;;;307.50;1868.80;;;;;;5038231;28;20025;-81
2021/01/03 10:19:48;;;;;;;22.70;18.42;;;307.70;1868.80;;;;;;5056351;28;20035;-79
2021/01/03 10:22:46;;;;;;;18.05;13.20;;;307.80;1843.20;;;;;;5038484;28;20029;-80
2021/01/03 10:25:15;;;;;;;15.70;11.05;;;307.80;1843.20;;;;;;5011100;28;20060;-79
2021/01/03 10:27:59;;;;;;;22.30;17.58;;;307.80;1843.20;;;;;;5038787;28;20467;-81
2021/01/03 10:30:25;;;;;;;30.92;26.80;;;307.80;1868.80;;;;;;5038576;28;20342;-77
2021/01/03 10:32:51;;;;;;;18.83;13.30;;;308.10;1843.20;;;;;;5038633;28;20074;-78
2021/01/03 10:35:17;;;;;;;20.77;17.73;;;332.80;1843.20;;;;;;5037808;28;20139;-77
2021/01/03 10:37:42;;;;;;;12.32;10.48;;;332.80;1843.20;;;;;;5055156;28;20037;-78
2021/01/03 10:40:09;;;;;;;13.93;12.25;;;332.90;1817.60;;;;;;5054495;28;20037;-77
2021/01/03 10:42:34;;;;;;;10.52;7.97;;;332.90;1792.00;;;;;;5037899;28;20029;-78
2021/01/03 10:45:00;;;;;;;10.38;7.05;;;333.10;1792.00;;;;;;5037416;28;20111;-79
2021/01/03 10:47:26;;;;;;;6.38;4.32;;;333.20;1766.40;;;;;;5055692;28;20083;-79
2021/01/03 10:49:52;;;;;;;8.48;5.75;;;333.20;1766.40;;;;;;5055931;28;20025;-80
2021/01/03 10:52:17;;;;;;;8.48;6.13;;;333.20;1740.80;;;;;;5037421;28;20071;-79
2021/01/03 10:54:43;;;;;;;10.27;6.28;;;333.30;1740.80;;;;;;5037476;28;20021;-80
2021/01/03 10:57:09;;;;;;;10.65;6.97;;;333.30;1715.20;;;;;;5055526;28;20029;-79
2021/01/03 10:59:35;;;;;;;14.93;10.40;;;333.40;1740.80;;;;;;5054785;28;20036;-76
2021/01/03 11:02:01;;;;;;;12.38;6.88;;;333.50;1715.20;;;;;;5055521;28;20032;-77
2021/01/03 11:04:27;;;;;;;6.13;4.20;;;333.60;1689.60;;;;;;5055788;28;20033;-78
2021/01/03 11:06:55;;;;;;;7.43;5.05;;;333.60;1638.40;;;;;;5037315;28;20032;-78
2021/01/03 11:09:28;;;;;;;11.30;8.27;;;333.60;1638.40;;;;;;5055376;28;20025;-77
2021/01/03 11:12:00;;;;;;;13.55;7.82;;;333.70;1689.60;;;;;;5037220;28;20029;-76
2021/01/03 11:14:26;;;;;;;10.13;6.68;;;358.40;1689.60;;;;;;5037016;28;20082;-77
2021/01/03 11:16:52;;;;;;;10.30;7.00;;;333.70;1638.40;;;;;;5054848;28;20419;-76
2021/01/03 11:19:18;;;;;;;12.23;6.70;;;358.40;1664.00;;;;;;5035846;28;20024;-78
2021/01/03 11:21:43;;;;;;;8.15;5.55;;;333.70;1664.00;;;;;;5054421;28;20029;-78
2021/01/03 11:24:11;;;;;;;11.27;6.57;;;333.70;1587.20;;;;;;5036411;28;20504;-79
2021/01/03 11:26:41;;;;;;;10.68;6.13;;;358.50;1561.60;;;;;;5036758;28;20515;-76
2021/01/03 11:29:09;;;;;;;8.55;5.88;;;358.50;1587.20;;;;;;5037443;28;20040;-78
2021/01/03 11:31:37;;;;;;;11.20;8.55;;;358.60;1561.60;;;;;;5037191;28;20031;-79
2021/01/03 11:34:04;;;;;;;8.70;6.10;;;358.70;1561.60;;;;;;5036756;28;20457;-77
2021/01/03 11:36:30;;;;;;;9.32;5.35;;;358.80;1536.00;;;;;;5036999;28;20599;-78
2021/01/03 11:38:58;;;;;;;9.80;6.90;;;359.20;1510.40;;;;;;5035206;28;20424;-78
2021/01/03 11:41:24;;;;;;;8.70;6.53;;;359.00;1510.40;;;;;;5051493;28;20100;-78
2021/01/03 11:43:50;;;;;;;6.43;3.70;;;359.20;1510.40;;;;;;5047485;28;20159;-78
2021/01/03 11:46:19;;;;;;;18.27;9.25;;;359.20;1484.80;;;;;;5031573;28;20041;-80
2021/01/03 11:48:46;;;;;;;8.40;5.57;;;384.00;1484.80;;;;;;5050912;28;20385;-77
2021/01/03 11:51:12;;;;;;;10.05;6.88;;;384.30;1484.80;;;;;;5021141;28;20080;-80
2021/01/03 11:53:38;;;;;;;9.25;4.60;;;384.60;1459.20;;;;;;5050858;28;20039;-78
2021/01/03 11:56:04;;;;;;;11.98;8.27;;;384.60;1433.60;;;;;;5045401;28;20025;-78
2021/01/03 11:58:30;;;;;;;11.80;9.10;;;384.10;1459.20;;;;;;5031541;28;20047;-81
2021/01/03 12:00:56;;;;;;;21.05;16.98;;;409.60;1484.80;;;;;;4958320;28;20658;-82
2021/01/03 12:03:22;;;;;;;10.27;7.00;;;409.60;1459.20;;;;;;4956933;28;20516;-80
2021/01/03 12:05:49;;;;;;;9.18;7.38;;;384.80;1382.40;;;;;;5065383;28;20024;-80
2021/01/03 12:08:16;;;;;;;20.15;8.93;;;409.60;1408.00;;;;;;5052420;28;20029;-80
2021/01/03 12:10:42;;;;;;;18.77;8.77;;;384.90;1382.40;;;;;;5071467;28;20056;-79
2021/01/03 12:13:08;;;;;;;16.25;10.00;;;384.90;1382.40;;;;;;5064899;28;20110;-78
2021/01/03 12:15:34;;;;;;;10.95;9.02;;;409.60;1382.40;;;;;;5068046;28;20433;-80
2021/01/03 12:18:00;;;;;;;16.80;11.25;;;435.50;1382.40;;;;;;5070186;28;20358;-79
2021/01/03 12:20:27;;;;;;;12.82;7.50;;;409.80;1408.00;;;;;;5049468;28;20025;-79
2021/01/03 12:22:53;;;;;;;13.93;10.20;;;409.90;1408.00;;;;;;5061005;28;20029;-79
2021/01/03 12:25:19;;;;;;;14.13;8.95;;;410.20;1382.40;;;;;;5062138;28;20032;-79